createdAt,value
2019-02-14T00:00:45.782Z,27.77
2019-02-14T00:05:49.585Z,27.50
2019-02-14T00:10:52.011Z,27.77
2019-02-14T00:15:54.991Z,27.30
2019-02-14T00:20:57.913Z,27.57
2019-02-14T00:26:00.189Z,29.13
2019-02-14T00:31:04.771Z,27.30
2019-02-14T00:36:10.062Z,27.37
2019-02-14T00:41:18.136Z,27.83
2019-02-14T00:46:23.213Z,26.70
2019-02-14T00:51:25.411Z,26.40
2019-02-14T00:56:28.467Z,27.07
2019-02-14T01:01:30.760Z,26.80
2019-02-14T01:06:34.401Z,26.97
2019-02-14T01:11:37.791Z,27.50
2019-02-14T01:16:41.277Z,27.90
2019-02-14T01:21:44.789Z,27.33
2019-02-14T01:26:50.362Z,27.33
2019-02-14T01:31:57.691Z,28.07
2019-02-14T01:37:00.265Z,28.17
2019-02-14T01:42:05.849Z,29.10
2019-02-14T01:47:10.867Z,27.97
2019-02-14T01:52:13.271Z,27.83
2019-02-14T01:57:18.328Z,28.20
2019-02-14T02:02:23.072Z,27.93
2019-02-14T02:07:28.041Z,27.77
2019-02-14T02:12:30.713Z,28.00
2019-02-14T02:17:34.233Z,28.60
2019-02-14T02:22:36.827Z,28.50
2019-02-14T02:27:39.122Z,29.40
2019-02-14T02:32:41.529Z,28.17
2019-02-14T02:37:43.705Z,29.00
2019-02-14T02:42:46.318Z,28.87
2019-02-14T02:47:48.902Z,27.37
2019-02-14T02:52:52.733Z,28.93
2019-02-14T02:57:54.962Z,28.07
2019-02-14T03:02:57.712Z,26.57
2019-02-14T03:07:59.911Z,27.90
2019-02-14T03:13:05.243Z,28.83
2019-02-14T03:18:07.245Z,26.97
2019-02-14T03:23:09.814Z,27.43
2019-02-14T03:28:12.411Z,28.43
2019-02-14T03:33:14.849Z,27.43
2019-02-14T03:38:17.301Z,28.67
2019-02-14T03:43:21.740Z,28.87
2019-02-14T03:48:24.021Z,27.60
2019-02-14T03:53:26.746Z,28.43
2019-02-14T03:58:29.530Z,27.67
2019-02-14T04:03:34.882Z,29.17
2019-02-14T04:08:37.196Z,26.73
2019-02-14T04:13:39.599Z,28.93
2019-02-14T04:18:45.122Z,28.40
2019-02-14T04:23:47.723Z,27.90
2019-02-14T04:28:50.207Z,27.73
2019-02-14T04:33:57.205Z,28.03
2019-02-14T04:39:02.263Z,25.47
2019-02-14T04:44:04.861Z,27.83
2019-02-14T04:49:07.147Z,28.63
2019-02-14T04:54:09.998Z,28.90
2019-02-14T04:59:15.420Z,28.67
2019-02-14T05:04:18.942Z,29.50
2019-02-14T05:09:21.229Z,28.03
2019-02-14T05:14:26.148Z,30.40
2019-02-14T05:19:28.555Z,30.53
2019-02-14T05:24:31.163Z,30.87
2019-02-14T05:29:33.439Z,30.07
2019-02-14T05:34:36.153Z,29.63
2019-02-14T05:39:42.010Z,29.50
2019-02-14T05:44:44.660Z,33.43
2019-02-14T05:49:48.735Z,31.63
2019-02-14T05:54:51.417Z,32.27
2019-02-14T05:59:53.643Z,31.33
2019-02-14T06:04:55.950Z,31.73
2019-02-14T06:09:58.166Z,32.40
2019-02-14T06:15:02.513Z,32.87
2019-02-14T06:20:07.386Z,30.80
2019-02-14T06:25:09.655Z,30.93
2019-02-14T06:30:12.396Z,32.20
2019-02-14T06:35:16.082Z,31.53
2019-02-14T06:40:22.366Z,29.40
2019-02-14T06:45:24.812Z,29.83
2019-02-14T06:50:34.578Z,30.60
2019-02-14T06:55:34.282Z,30.30
2019-02-14T07:00:36.703Z,29.47
2019-02-14T07:05:38.724Z,27.53
2019-02-14T07:10:42.572Z,27.80
2019-02-14T07:15:47.917Z,28.60
2019-02-14T07:20:52.095Z,27.30
2019-02-14T07:25:57.323Z,27.53
2019-02-14T07:31:01.824Z,27.33
2019-02-14T07:36:04.748Z,27.93
2019-02-14T07:41:07.034Z,26.73
2019-02-14T07:46:11.763Z,26.63
2019-02-14T07:51:14.066Z,27.13
2019-02-14T07:56:16.675Z,28.30
2019-02-14T08:01:19.727Z,26.23
2019-02-14T08:06:22.178Z,25.93
2019-02-14T08:11:25.752Z,24.07
2019-02-14T08:16:30.075Z,24.20
2019-02-14T08:21:32.413Z,23.10
2019-02-14T08:26:36.239Z,23.50
2019-02-14T08:31:38.514Z,22.37
2019-02-14T08:36:43.835Z,22.50
2019-02-14T08:41:45.926Z,22.33
2019-02-14T08:46:48.452Z,22.23
2019-02-14T08:51:55.928Z,20.77
2019-02-14T08:56:58.214Z,20.80
2019-02-14T09:02:02.550Z,20.93
2019-02-14T09:07:04.983Z,19.23
2019-02-14T09:12:09.174Z,20.37
2019-02-14T09:17:11.683Z,20.13
2019-02-14T09:22:13.856Z,18.50
2019-02-14T09:27:16.231Z,19.77
2019-02-14T09:32:22.356Z,19.60
2019-02-14T09:37:25.176Z,18.80
2019-02-14T09:42:29.401Z,19.30
2019-02-14T09:47:35.262Z,18.37
2019-02-14T09:52:37.543Z,19.20
2019-02-14T09:57:39.846Z,18.40
2019-02-14T10:02:41.890Z,19.47
2019-02-14T10:07:44.121Z,17.87
2019-02-14T10:12:46.538Z,18.57
2019-02-14T10:17:50.528Z,17.10
2019-02-14T10:22:52.770Z,16.67
2019-02-14T10:27:59.341Z,17.30
2019-02-14T10:33:01.762Z,17.13
2019-02-14T10:38:09.860Z,16.63
2019-02-14T10:43:12.106Z,17.23
2019-02-14T10:48:14.298Z,16.93
2019-02-14T10:53:19.450Z,16.40
2019-02-14T10:58:22.798Z,16.37
2019-02-14T11:03:25.435Z,15.67
2019-02-14T11:08:31.646Z,15.27
2019-02-14T11:13:31.947Z,15.10
2019-02-14T11:18:34.261Z,14.10
2019-02-14T11:23:36.680Z,15.17
2019-02-14T11:28:38.774Z,13.37
2019-02-14T11:33:43.592Z,15.20
2019-02-14T11:38:45.608Z,16.00
2019-02-14T11:43:50.630Z,15.60
2019-02-14T11:48:55.838Z,16.00
2019-02-14T11:53:58.566Z,15.90
2019-02-14T11:59:01.181Z,15.47
2019-02-14T12:04:03.599Z,14.87
2019-02-14T12:09:06.775Z,13.40
2019-02-14T12:14:10.168Z,14.07
2019-02-14T12:19:17.630Z,13.13
2019-02-14T12:24:22.474Z,13.97
2019-02-14T12:29:24.567Z,13.67
2019-02-14T12:34:26.903Z,13.47
2019-02-14T12:39:29.139Z,13.67
2019-02-14T12:44:35.016Z,13.43
2019-02-14T12:49:37.403Z,11.47
2019-02-14T12:54:39.851Z,11.03
2019-02-14T12:59:42.151Z,10.63
2019-02-14T13:04:44.147Z,12.40
2019-02-14T13:09:46.476Z,12.97
2019-02-14T13:14:48.681Z,13.87
2019-02-14T13:19:50.984Z,12.23
2019-02-14T13:24:53.197Z,11.67
2019-02-14T13:29:55.498Z,11.83
2019-02-14T13:34:58.051Z,11.80
2019-02-14T13:40:00.412Z,12.77
2019-02-14T13:45:03.052Z,11.90
2019-02-14T13:50:05.993Z,12.60
2019-02-14T13:55:08.622Z,12.17
2019-02-14T14:00:14.565Z,12.30
2019-02-14T14:05:18.587Z,11.23
2019-02-14T14:10:22.795Z,11.57
2019-02-14T14:15:25.564Z,12.17
2019-02-14T14:20:29.078Z,12.20
2019-02-14T14:25:31.798Z,11.57
2019-02-14T14:30:36.540Z,11.63
2019-02-14T14:35:40.392Z,11.87
2019-02-14T14:40:42.674Z,11.87
2019-02-14T14:46:08.282Z,12.50
2019-02-14T14:51:12.120Z,11.83
2019-02-14T14:56:14.792Z,10.63
2019-02-14T15:01:17.314Z,10.63
2019-02-14T15:30:51.654Z,9.83
2019-02-14T15:35:57.143Z,10.27
2019-02-14T15:41:01.734Z,9.70
2019-02-14T15:46:09.865Z,10.00
2019-02-14T15:51:15.668Z,10.97
2019-02-14T15:56:18.277Z,11.43
2019-02-14T16:01:20.293Z,12.20
2019-02-14T16:06:22.764Z,11.60
2019-02-14T16:11:25.106Z,11.17
2019-02-14T18:35:59.351Z,11.33
2019-02-14T18:41:14.316Z,11.83
2019-02-14T18:46:29.386Z,12.43
2019-02-14T18:51:44.490Z,11.93
2019-02-14T18:57:00.122Z,12.97
2019-02-14T19:07:17.894Z,11.40
2019-02-14T19:22:52.188Z,11.37
2019-02-14T19:28:00.976Z,10.93
2019-02-14T19:33:13.788Z,12.30
2019-02-14T19:38:29.931Z,11.93
2019-02-14T19:43:39.280Z,12.40
2019-02-14T19:48:48.287Z,11.90
2019-02-14T19:53:57.073Z,12.27
2019-02-14T19:59:07.099Z,13.53
2019-02-14T20:04:20.013Z,13.80
2019-02-14T20:09:36.057Z,13.90
2019-02-14T20:14:44.856Z,13.03
2019-02-14T20:19:55.182Z,12.70
2019-02-14T20:25:04.324Z,12.53
2019-02-14T20:30:13.478Z,12.47
2019-02-14T20:35:23.566Z,11.83
2019-02-14T20:40:38.623Z,11.47
2019-02-14T20:45:47.439Z,11.90
2019-02-14T20:50:58.548Z,11.70
2019-02-14T20:56:09.387Z,11.97
2019-02-14T21:01:18.310Z,12.50
2019-02-14T21:06:27.294Z,12.07
2019-02-14T21:11:35.916Z,10.30
2019-02-14T21:16:44.947Z,11.07
2019-02-14T21:21:54.150Z,10.97
2019-02-14T21:27:03.142Z,9.73
2019-02-14T21:32:12.161Z,10.00
2019-02-14T21:37:27.280Z,10.43
2019-02-14T21:42:35.452Z,10.17
2019-02-14T21:47:43.597Z,10.80
2019-02-14T21:52:52.539Z,10.37
2019-02-14T21:58:04.477Z,10.03
2019-02-14T22:03:12.620Z,9.57
2019-02-14T22:08:24.785Z,9.40
2019-02-14T22:13:38.725Z,9.67
2019-02-14T22:18:53.777Z,9.00
2019-02-14T22:24:08.852Z,9.27
2019-02-14T22:29:18.714Z,9.87
2019-02-14T22:34:27.738Z,8.83
2019-02-14T22:39:44.135Z,8.53
2019-02-14T22:44:53.128Z,8.80
2019-02-14T22:50:02.388Z,9.37
2019-02-14T22:55:14.708Z,9.03
2019-02-14T23:00:52.135Z,9.57
2019-02-14T23:06:01.070Z,9.27
2019-02-14T23:11:10.276Z,9.13
2019-02-14T23:16:18.931Z,8.67
2019-02-14T23:21:34.051Z,9.30
2019-02-14T23:26:48.287Z,9.30
2019-02-14T23:31:57.138Z,8.70
2019-02-14T23:37:12.931Z,9.10
2019-02-14T23:42:28.398Z,9.10
2019-02-14T23:47:37.385Z,8.83
2019-02-14T23:52:46.552Z,9.10
2019-02-14T23:57:55.564Z,9.90
